createdAt,value
2023-08-28T00:00:44.265Z,3.03
2023-08-28T00:03:11.518Z,3.00
2023-08-28T00:05:38.407Z,3.33
2023-08-28T00:08:09.385Z,3.28
2023-08-28T00:10:36.858Z,3.15
2023-08-28T00:13:04.512Z,3.20
2023-08-28T00:15:31.808Z,3.17
2023-08-28T00:17:58.774Z,3.17
2023-08-28T00:20:25.710Z,3.22
2023-08-28T00:22:52.585Z,3.00
2023-08-28T00:25:19.593Z,3.00
2023-08-28T00:27:46.751Z,3.03
2023-08-28T00:30:13.868Z,3.10
2023-08-28T00:32:40.814Z,3.33
2023-08-28T00:35:08.405Z,3.00
2023-08-28T00:37:35.745Z,3.30
2023-08-28T00:40:04.379Z,3.30
2023-08-28T00:42:31.375Z,3.20
2023-08-28T00:44:58.392Z,3.47
2023-08-28T00:47:26.050Z,2.90
2023-08-28T00:49:53.355Z,3.42
2023-08-28T00:52:20.440Z,3.72
2023-08-28T00:54:48.709Z,3.40
2023-08-28T00:57:18.446Z,3.42
2023-08-28T00:59:47.202Z,3.38
2023-08-28T01:02:14.177Z,3.55
2023-08-28T01:04:41.057Z,3.38
2023-08-28T01:07:24.451Z,3.00
2023-08-28T01:10:16.863Z,3.20
2023-08-28T01:13:11.732Z,3.30
2023-08-28T01:15:40.124Z,3.25
2023-08-28T01:18:09.205Z,3.20
2023-08-28T01:20:39.092Z,3.20
2023-08-28T01:23:06.266Z,4.07
2023-08-28T01:25:33.749Z,3.33
2023-08-28T01:28:00.798Z,2.83
2023-08-28T01:30:28.334Z,3.20
2023-08-28T01:32:56.137Z,3.33
2023-08-28T01:35:27.416Z,3.47
2023-08-28T01:38:15.961Z,3.35
2023-08-28T01:41:12.492Z,3.15
2023-08-28T01:43:43.441Z,3.33
2023-08-28T01:46:11.725Z,3.17
2023-08-28T01:48:44.928Z,3.15
2023-08-28T01:51:11.957Z,2.75
2023-08-28T01:53:40.114Z,2.90
2023-08-28T01:56:10.007Z,3.30
2023-08-28T01:58:39.526Z,3.10
2023-08-28T02:01:06.509Z,2.95
2023-08-28T02:03:34.289Z,3.58
2023-08-28T02:06:01.539Z,3.13
2023-08-28T02:08:28.555Z,3.55
2023-08-28T02:10:55.413Z,3.20
2023-08-28T02:13:23.030Z,3.08
2023-08-28T02:15:50.054Z,3.03
2023-08-28T02:18:16.931Z,3.50
2023-08-28T02:20:46.477Z,3.35
2023-08-28T02:23:13.526Z,3.17
2023-08-28T02:25:48.585Z,2.90
2023-08-28T02:28:19.363Z,3.50
2023-08-28T02:30:47.088Z,3.28
2023-08-28T02:33:14.489Z,2.92
2023-08-28T02:35:43.750Z,3.20
2023-08-28T02:38:11.896Z,2.90
2023-08-28T02:40:39.671Z,2.97
2023-08-28T02:43:07.470Z,3.20
2023-08-28T02:45:36.274Z,2.72
2023-08-28T02:48:04.592Z,3.28
2023-08-28T02:50:36.517Z,3.38
2023-08-28T02:53:04.740Z,3.15
2023-08-28T02:55:42.455Z,2.83
2023-08-28T02:58:11.535Z,3.05
2023-08-28T03:00:39.348Z,3.70
2023-08-28T03:03:07.012Z,4.47
2023-08-28T03:05:34.528Z,3.05
2023-08-28T03:08:01.435Z,2.88
2023-08-28T03:10:31.093Z,2.70
2023-08-28T03:12:58.407Z,3.65
2023-08-28T03:15:25.393Z,3.30
2023-08-28T03:17:52.379Z,3.10
2023-08-28T03:20:19.307Z,4.05
2023-08-28T03:22:47.459Z,3.47
2023-08-28T03:25:15.063Z,3.13
2023-08-28T03:27:42.101Z,3.58
2023-08-28T03:30:10.410Z,3.70
2023-08-28T03:32:37.612Z,3.80
2023-08-28T03:35:04.759Z,4.10
2023-08-28T03:37:31.592Z,4.18
2023-08-28T03:39:58.645Z,3.92
2023-08-28T03:42:25.618Z,4.35
2023-08-28T03:44:52.620Z,4.15
2023-08-28T03:47:19.509Z,3.38
2023-08-28T03:49:46.457Z,3.50
2023-08-28T03:52:13.361Z,3.30
2023-08-28T03:54:40.815Z,3.50
2023-08-28T03:57:07.673Z,5.03
2023-08-28T03:59:34.659Z,3.63
2023-08-28T04:02:03.489Z,3.47
2023-08-28T04:04:31.248Z,3.47
2023-08-28T04:07:02.934Z,3.50
2023-08-28T04:11:59.742Z,5.00
2023-08-28T04:14:26.687Z,4.50
2023-08-28T04:16:54.884Z,5.72
2023-08-28T04:19:21.819Z,5.43
2023-08-28T04:21:51.634Z,3.72
2023-08-28T04:24:19.488Z,4.53
2023-08-28T04:26:49.333Z,6.55
2023-08-28T04:29:22.071Z,4.63
2023-08-28T04:31:49.275Z,6.75
2023-08-28T04:34:19.356Z,3.65
2023-08-28T04:36:46.259Z,4.22
2023-08-28T04:39:13.155Z,3.50
2023-08-28T04:41:41.356Z,2.92
2023-08-28T04:44:08.308Z,3.63
2023-08-28T04:46:35.310Z,3.53
2023-08-28T04:49:02.189Z,4.18
2023-08-28T04:51:30.816Z,3.05
2023-08-28T04:53:57.701Z,3.20
2023-08-28T04:56:24.754Z,3.30
2023-08-28T04:58:52.785Z,3.25
2023-08-28T05:01:19.635Z,3.03
2023-08-28T05:03:46.601Z,2.92
2023-08-28T05:06:13.504Z,4.22
2023-08-28T05:08:40.442Z,3.80
2023-08-28T05:11:10.199Z,4.00
2023-08-28T05:13:37.103Z,3.40
2023-08-28T05:16:04.189Z,3.10
2023-08-28T05:18:31.163Z,3.28
2023-08-28T05:20:58.063Z,3.53
2023-08-28T05:23:27.811Z,3.58
2023-08-28T05:25:55.943Z,3.40
2023-08-28T05:28:23.212Z,3.55
2023-08-28T05:30:50.353Z,3.55
2023-08-28T05:33:17.304Z,3.25
2023-08-28T05:35:44.440Z,3.50
2023-08-28T05:38:12.071Z,2.78
2023-08-28T05:40:39.033Z,3.00
2023-08-28T05:43:06.928Z,3.08
2023-08-28T05:45:34.247Z,2.90
2023-08-28T05:48:01.360Z,3.00
2023-08-28T05:50:28.265Z,3.03
2023-08-28T05:52:55.199Z,2.83
2023-08-28T05:55:22.115Z,2.75
2023-08-28T05:57:49.498Z,4.40
2023-08-28T06:00:16.779Z,3.72
2023-08-28T06:02:44.392Z,2.95
2023-08-28T06:05:11.451Z,3.38
2023-08-28T06:07:38.613Z,2.90
2023-08-28T06:10:06.879Z,2.75
2023-08-28T06:12:35.369Z,3.10
2023-08-28T06:15:02.200Z,3.95
2023-08-28T06:17:29.231Z,3.72
2023-08-28T06:19:56.555Z,3.55
2023-08-28T06:22:23.371Z,3.97
2023-08-28T06:24:54.130Z,3.50
2023-08-28T06:27:21.188Z,3.92
2023-08-28T06:29:48.165Z,4.47
2023-08-28T06:32:16.206Z,3.50
2023-08-28T06:34:43.176Z,3.72
2023-08-28T06:37:10.134Z,4.57
2023-08-28T06:39:37.155Z,4.15
2023-08-28T06:42:04.401Z,4.45
2023-08-28T06:44:32.214Z,4.28
2023-08-28T06:46:59.153Z,3.88
2023-08-28T06:49:26.010Z,2.88
2023-08-28T06:51:52.980Z,3.72
2023-08-28T06:54:19.802Z,3.85
2023-08-28T06:56:46.629Z,2.75
2023-08-28T06:59:13.600Z,3.35
2023-08-28T07:01:40.408Z,2.90
2023-08-28T07:04:07.364Z,3.00
2023-08-28T07:06:35.422Z,4.22
2023-08-28T07:09:02.272Z,2.83
2023-08-28T07:11:29.386Z,2.78
2023-08-28T07:13:56.349Z,2.92
2023-08-28T07:16:23.286Z,3.30
2023-08-28T07:18:50.265Z,3.17
2023-08-28T07:21:17.301Z,2.63
2023-08-28T07:23:46.561Z,2.65
2023-08-28T07:26:17.101Z,3.30
2023-08-28T07:28:47.804Z,2.85
2023-08-28T07:31:14.777Z,2.60
2023-08-28T07:33:41.929Z,2.70
2023-08-28T07:36:09.108Z,2.85
2023-08-28T07:38:36.268Z,2.35
2023-08-28T07:41:03.214Z,2.50
2023-08-28T07:43:30.214Z,3.42
2023-08-28T07:45:57.136Z,3.13
2023-08-28T07:48:24.983Z,2.90
2023-08-28T07:50:51.962Z,4.82
2023-08-28T07:53:18.825Z,2.70
2023-08-28T07:55:45.672Z,3.22
2023-08-28T07:58:12.579Z,2.75
2023-08-28T08:00:41.511Z,5.22
2023-08-28T08:03:08.520Z,2.65
2023-08-28T08:05:35.587Z,2.50
2023-08-28T08:08:02.468Z,2.60
2023-08-28T08:10:29.296Z,2.25
2023-08-28T08:12:56.331Z,2.60
2023-08-28T08:15:23.275Z,3.15
2023-08-28T08:17:50.334Z,2.63
2023-08-28T08:20:17.340Z,2.40
2023-08-28T08:22:44.706Z,3.53
2023-08-28T08:25:12.096Z,2.33
2023-08-28T08:27:42.399Z,2.22
2023-08-28T08:30:09.953Z,3.40
2023-08-28T08:32:36.947Z,3.03
2023-08-28T08:35:06.838Z,2.30
2023-08-28T08:37:34.410Z,2.58
2023-08-28T08:40:01.458Z,2.90
2023-08-28T08:42:29.197Z,2.50
2023-08-28T08:44:56.185Z,2.47
2023-08-28T08:47:24.570Z,2.67
2023-08-28T08:49:56.547Z,2.50
2023-08-28T08:52:24.237Z,2.38
2023-08-28T08:54:57.901Z,2.28
2023-08-28T08:57:40.391Z,2.85
2023-08-28T09:00:18.785Z,2.50
2023-08-28T09:02:47.266Z,2.10
2023-08-28T09:05:16.215Z,2.70
2023-08-28T09:07:44.707Z,2.35
2023-08-28T09:10:13.475Z,2.33
2023-08-28T09:12:40.464Z,2.40
2023-08-28T09:15:08.064Z,2.67
2023-08-28T09:17:40.294Z,2.78
2023-08-28T09:20:25.253Z,2.70
2023-08-28T09:22:55.093Z,2.45
2023-08-28T09:25:24.015Z,2.40
2023-08-28T09:27:53.736Z,2.50
2023-08-28T09:30:27.995Z,2.45
2023-08-28T09:32:55.237Z,2.55
2023-08-28T09:35:22.584Z,2.80
2023-08-28T09:38:00.426Z,2.72
2023-08-28T09:40:38.913Z,2.67
2023-08-28T09:43:14.135Z,2.45
2023-08-28T09:45:43.107Z,2.35
2023-08-28T09:48:11.939Z,2.50
2023-08-28T09:50:43.525Z,2.28
2023-08-28T09:53:12.713Z,2.38
2023-08-28T09:55:53.698Z,2.50
2023-08-28T09:58:24.838Z,3.80
2023-08-28T10:00:53.311Z,2.90
2023-08-28T10:03:24.591Z,2.55
2023-08-28T10:08:20.200Z,2.70
2023-08-28T10:10:53.032Z,2.55
2023-08-28T10:13:23.953Z,2.40
2023-08-28T10:16:11.811Z,2.70
2023-08-28T10:19:08.305Z,2.63
2023-08-28T10:21:36.015Z,2.60
2023-08-28T10:24:03.313Z,2.25
2023-08-28T10:26:30.806Z,2.60
2023-08-28T10:28:58.902Z,2.60
2023-08-28T10:31:26.829Z,2.20
2023-08-28T10:33:54.341Z,2.17
2023-08-28T10:36:47.250Z,2.42
2023-08-28T10:39:09.856Z,2.10
2023-08-28T10:41:38.569Z,2.33
2023-08-28T10:44:06.555Z,2.30
2023-08-28T10:46:34.662Z,2.92
2023-08-28T10:49:05.381Z,2.22
2023-08-28T10:51:34.290Z,2.30
2023-08-28T10:54:09.327Z,2.17
2023-08-28T10:56:38.667Z,2.28
2023-08-28T10:59:20.829Z,2.00
2023-08-28T11:01:56.581Z,2.72
2023-08-28T11:04:25.370Z,2.22
2023-08-28T11:06:52.745Z,2.30
2023-08-28T11:09:31.608Z,2.20
2023-08-28T11:11:58.499Z,2.10
2023-08-28T11:17:09.210Z,2.20
2023-08-28T11:19:54.637Z,2.30
2023-08-28T11:22:41.887Z,2.20
2023-08-28T11:25:14.007Z,2.30
2023-08-28T11:27:49.659Z,2.25
2023-08-28T11:30:21.472Z,2.03
2023-08-28T11:32:51.321Z,2.25
2023-08-28T11:35:20.255Z,2.33
2023-08-28T11:37:49.706Z,2.03
2023-08-28T11:40:24.414Z,2.28
2023-08-28T11:43:05.082Z,2.60
2023-08-28T11:45:32.393Z,2.63
2023-08-28T11:48:05.145Z,2.17
2023-08-28T11:50:32.632Z,2.03
2023-08-28T11:52:59.569Z,2.63
2023-08-28T11:55:27.107Z,2.20
2023-08-28T11:57:54.429Z,2.15
2023-08-28T12:00:22.397Z,2.13
2023-08-28T12:02:50.157Z,2.13
2023-08-28T12:05:20.280Z,2.70
2023-08-28T12:07:48.477Z,2.13
2023-08-28T12:10:17.272Z,2.17
2023-08-28T12:12:44.444Z,2.30
2023-08-28T12:15:12.123Z,2.10
2023-08-28T12:17:39.768Z,2.30
2023-08-28T12:20:12.419Z,2.25
2023-08-28T12:22:48.359Z,2.42
2023-08-28T12:25:15.340Z,2.83
2023-08-28T12:27:42.255Z,2.35
2023-08-28T12:30:19.259Z,2.60
2023-08-28T12:32:54.881Z,2.20
2023-08-28T12:35:23.932Z,2.42
2023-08-28T12:37:54.710Z,2.40
2023-08-28T12:40:21.638Z,2.20
2023-08-28T12:42:48.865Z,2.70
2023-08-28T12:45:15.809Z,2.42
2023-08-28T12:47:43.080Z,2.38
2023-08-28T12:50:11.413Z,2.28
2023-08-28T12:52:38.494Z,2.60
2023-08-28T12:55:06.243Z,2.60
2023-08-28T12:57:33.551Z,2.40
2023-08-28T13:00:00.427Z,2.50
2023-08-28T13:02:28.001Z,2.90
2023-08-28T13:04:55.256Z,2.70
2023-08-28T13:07:22.214Z,2.72
2023-08-28T13:09:49.282Z,2.60
2023-08-28T13:12:16.256Z,2.55
2023-08-28T13:14:43.174Z,2.55
2023-08-28T13:17:10.024Z,2.35
2023-08-28T13:19:36.973Z,2.50
2023-08-28T13:22:04.469Z,2.40
2023-08-28T13:24:42.183Z,2.42
2023-08-28T13:27:11.198Z,2.70
2023-08-28T13:29:38.034Z,2.60
2023-08-28T13:32:06.650Z,2.45
2023-08-28T13:34:33.740Z,2.97
2023-08-28T13:37:06.540Z,2.95
2023-08-28T13:39:34.263Z,2.63
2023-08-28T13:42:01.374Z,2.63
2023-08-28T13:44:31.077Z,2.90
2023-08-28T13:46:58.543Z,2.60
2023-08-28T13:49:25.428Z,2.53
2023-08-28T13:51:52.318Z,2.60
2023-08-28T13:54:19.892Z,2.55
2023-08-28T13:56:46.907Z,2.53
2023-08-28T13:59:13.804Z,2.42
2023-08-28T14:01:42.311Z,2.55
2023-08-28T14:04:09.765Z,2.45
2023-08-28T14:06:36.950Z,2.60
2023-08-28T14:09:05.251Z,2.63
2023-08-28T14:11:32.191Z,2.60
2023-08-28T14:13:59.082Z,2.42
2023-08-28T14:16:26.077Z,2.70
2023-08-28T14:18:52.918Z,2.60
2023-08-28T14:21:19.794Z,2.55
2023-08-28T14:23:46.722Z,2.60
2023-08-28T14:26:13.656Z,3.00
2023-08-28T14:28:40.627Z,2.58
2023-08-28T14:31:07.607Z,2.72
2023-08-28T14:33:34.557Z,2.45
2023-08-28T14:36:01.447Z,2.08
2023-08-28T14:38:32.442Z,2.67
2023-08-28T14:40:59.803Z,3.10
2023-08-28T14:43:26.976Z,2.80
2023-08-28T14:45:53.872Z,2.60
2023-08-28T14:48:21.108Z,2.42
2023-08-28T14:50:48.109Z,2.40
2023-08-28T14:53:15.097Z,2.55
2023-08-28T14:55:42.094Z,2.58
2023-08-28T14:58:09.033Z,2.55
2023-08-28T15:00:36.391Z,2.63
2023-08-28T15:03:04.487Z,2.67
2023-08-28T15:05:32.940Z,2.58
2023-08-28T15:08:11.674Z,2.58
2023-08-28T15:10:45.288Z,2.13
2023-08-28T15:13:12.354Z,2.45
2023-08-28T15:15:46.268Z,2.42
2023-08-28T15:18:13.583Z,2.70
2023-08-28T15:20:41.324Z,2.47
2023-08-28T15:23:08.585Z,3.17
2023-08-28T15:25:35.634Z,2.83
2023-08-28T15:28:02.622Z,2.55
2023-08-28T15:30:31.089Z,2.90
2023-08-28T15:32:58.347Z,3.17
2023-08-28T15:35:25.266Z,2.63
2023-08-28T15:37:52.204Z,2.50
2023-08-28T15:40:19.238Z,2.58
2023-08-28T15:42:47.197Z,2.60
2023-08-28T15:45:14.212Z,2.67
2023-08-28T15:47:42.100Z,2.60
2023-08-28T15:50:10.776Z,2.45
2023-08-28T15:52:37.645Z,2.60
2023-08-28T15:55:05.212Z,2.60
2023-08-28T15:57:32.164Z,2.70
2023-08-28T15:59:59.004Z,2.80
2023-08-28T16:02:25.863Z,2.85
2023-08-28T16:04:52.796Z,2.60
2023-08-28T16:07:19.675Z,2.75
2023-08-28T16:09:46.720Z,2.88
2023-08-28T16:12:13.644Z,2.83
2023-08-28T16:14:40.603Z,2.70
2023-08-28T16:17:09.062Z,2.80
2023-08-28T16:19:35.962Z,2.88
2023-08-28T16:22:02.819Z,2.80
2023-08-28T16:24:30.053Z,3.03
2023-08-28T16:26:56.905Z,2.80
2023-08-28T16:29:23.862Z,2.50
2023-08-28T16:31:50.690Z,3.00
2023-08-28T16:34:17.568Z,3.15
2023-08-28T16:36:44.532Z,2.67
2023-08-28T16:39:11.357Z,3.00
2023-08-28T16:41:38.268Z,2.85
2023-08-28T16:44:05.477Z,3.00
2023-08-28T16:46:32.333Z,3.03
2023-08-28T16:48:59.371Z,3.20
2023-08-28T16:51:26.220Z,3.10
2023-08-28T16:53:53.723Z,3.10
2023-08-28T16:56:21.286Z,3.15
2023-08-28T16:58:48.300Z,3.10
2023-08-28T17:01:15.093Z,3.25
2023-08-28T17:03:42.073Z,3.40
2023-08-28T17:06:08.998Z,3.10
2023-08-28T17:08:35.867Z,3.20
2023-08-28T17:11:02.837Z,4.00
2023-08-28T17:13:29.800Z,3.25
2023-08-28T17:15:56.725Z,3.58
2023-08-28T17:18:23.731Z,3.47
2023-08-28T17:20:50.611Z,3.47
2023-08-28T17:23:18.194Z,5.00
2023-08-28T17:25:45.144Z,3.83
2023-08-28T17:28:13.096Z,4.32
2023-08-28T17:30:40.192Z,3.45
2023-08-28T17:33:07.660Z,3.33
2023-08-28T17:35:35.145Z,3.20
2023-08-28T17:38:02.047Z,3.70
2023-08-28T17:40:29.022Z,3.55
2023-08-28T17:42:55.927Z,3.95
2023-08-28T17:45:22.783Z,3.92
2023-08-28T17:47:49.915Z,3.20
2023-08-28T17:50:17.242Z,3.17
2023-08-28T17:52:44.157Z,3.80
2023-08-28T17:55:11.610Z,4.18
2023-08-28T17:57:38.729Z,3.28
2023-08-28T18:00:06.880Z,3.30
2023-08-28T18:02:58.932Z,3.90
2023-08-28T18:05:27.505Z,3.40
2023-08-28T18:07:54.401Z,3.20
2023-08-28T18:10:21.261Z,3.50
2023-08-28T18:12:48.113Z,3.70
2023-08-28T18:15:15.096Z,3.78
2023-08-28T18:17:42.265Z,4.53
2023-08-28T18:20:09.744Z,4.03
2023-08-28T18:22:36.602Z,3.95
2023-08-28T18:25:03.771Z,3.67
2023-08-28T18:27:30.601Z,3.63
2023-08-28T18:29:57.501Z,3.55
2023-08-28T18:32:24.469Z,3.70
2023-08-28T18:34:54.762Z,3.67
2023-08-28T18:37:21.720Z,3.97
2023-08-28T18:39:48.747Z,4.45
2023-08-28T18:42:15.665Z,4.03
2023-08-28T18:44:42.572Z,3.60
2023-08-28T18:47:09.544Z,3.88
2023-08-28T18:49:36.413Z,4.13
2023-08-28T18:52:04.225Z,3.90
2023-08-28T18:54:31.923Z,4.15
2023-08-28T18:56:58.749Z,3.70
2023-08-28T18:59:25.699Z,3.78
2023-08-28T19:01:52.578Z,3.90
2023-08-28T19:04:22.149Z,4.20
2023-08-28T19:06:49.041Z,4.43
2023-08-28T19:09:16.038Z,4.13
2023-08-28T19:11:42.924Z,3.85
2023-08-28T19:14:09.918Z,3.70
2023-08-28T19:16:38.256Z,4.03
2023-08-28T19:19:05.924Z,4.38
2023-08-28T19:21:32.805Z,3.95
2023-08-28T19:23:59.695Z,3.50
2023-08-28T19:26:26.623Z,4.20
2023-08-28T19:28:53.666Z,4.30
2023-08-28T19:31:20.655Z,4.10
2023-08-28T19:33:47.583Z,4.13
2023-08-28T19:36:14.404Z,3.92
2023-08-28T19:38:41.278Z,4.65
2023-08-28T19:41:08.192Z,4.10
2023-08-28T19:43:35.249Z,4.40
2023-08-28T19:46:02.985Z,4.18
2023-08-28T19:48:33.260Z,4.60
2023-08-28T19:51:00.388Z,4.60
2023-08-28T19:53:27.427Z,4.22
2023-08-28T19:55:54.371Z,4.57
2023-08-28T19:58:21.439Z,3.85
2023-08-28T20:00:48.323Z,4.22
2023-08-28T20:03:15.451Z,4.30
2023-08-28T20:05:42.496Z,4.28
2023-08-28T20:08:09.580Z,4.53
2023-08-28T20:10:36.662Z,7.15
2023-08-28T20:13:03.720Z,6.85
2023-08-28T20:15:30.691Z,6.38
2023-08-28T20:17:57.724Z,5.25
2023-08-28T20:20:24.623Z,4.97
2023-08-28T20:22:51.542Z,4.53
2023-08-28T20:25:18.653Z,3.75
2023-08-28T20:27:45.660Z,4.53
2023-08-28T20:30:12.937Z,4.25
2023-08-28T20:32:39.819Z,4.38
2023-08-28T20:35:07.291Z,4.75
2023-08-28T20:37:34.555Z,4.30
2023-08-28T20:40:01.516Z,4.63
2023-08-28T20:42:28.373Z,4.25
2023-08-28T20:44:58.236Z,4.60
2023-08-28T20:47:27.006Z,4.60
2023-08-28T20:49:54.578Z,4.75
2023-08-28T20:52:21.557Z,5.55
2023-08-28T20:54:48.679Z,6.15
2023-08-28T20:57:15.564Z,7.30
2023-08-28T20:59:42.408Z,7.20
2023-08-28T21:02:09.370Z,7.68
2023-08-28T21:04:36.584Z,8.63
2023-08-28T21:07:04.291Z,7.50
2023-08-28T21:09:31.184Z,7.97
2023-08-28T21:11:58.937Z,9.68
2023-08-28T21:14:25.780Z,9.32
2023-08-28T21:16:52.767Z,8.77
2023-08-28T21:19:26.876Z,23.08
2023-08-28T21:21:53.750Z,30.73
2023-08-28T21:24:20.658Z,34.83
2023-08-28T21:26:47.523Z,32.42
2023-08-28T21:29:14.322Z,25.13
2023-08-28T21:31:41.169Z,22.70
2023-08-28T21:34:08.085Z,19.95
2023-08-28T21:36:34.994Z,20.23
2023-08-28T21:39:01.903Z,18.02
2023-08-28T21:41:29.037Z,18.92
2023-08-28T21:43:55.870Z,19.00
2023-08-28T21:46:22.874Z,15.85
2023-08-28T21:48:49.649Z,15.35
2023-08-28T21:51:35.169Z,16.75
2023-08-28T21:54:20.641Z,7.70
2023-08-28T21:57:06.154Z,7.47
2023-08-28T21:59:51.648Z,7.00
2023-08-28T22:02:37.113Z,6.65
2023-08-28T22:05:24.176Z,6.97
2023-08-28T22:07:51.102Z,6.72
2023-08-28T22:10:20.890Z,7.22
2023-08-28T22:13:08.884Z,7.07
2023-08-28T22:15:38.957Z,7.03
2023-08-28T22:18:06.276Z,7.20
2023-08-28T22:20:33.759Z,7.53
2023-08-28T22:23:00.841Z,8.20
2023-08-28T22:25:27.964Z,9.18
2023-08-28T22:27:54.843Z,9.23
2023-08-28T22:30:21.850Z,8.32
2023-08-28T22:32:51.395Z,6.75
2023-08-28T22:35:19.014Z,6.53
2023-08-28T22:37:45.823Z,6.15
2023-08-28T22:40:12.844Z,6.10
2023-08-28T22:42:39.787Z,5.75
2023-08-28T22:45:06.957Z,5.93
2023-08-28T22:47:35.589Z,5.97
2023-08-28T22:50:02.584Z,5.68
2023-08-28T22:52:29.438Z,5.57
2023-08-28T22:54:56.452Z,5.65
2023-08-28T22:57:23.416Z,6.03
2023-08-28T22:59:50.430Z,5.40
2023-08-28T23:02:17.441Z,5.55
2023-08-28T23:04:44.351Z,5.68
2023-08-28T23:07:11.253Z,5.60
2023-08-28T23:09:38.118Z,5.22
2023-08-28T23:12:05.255Z,5.05
2023-08-28T23:14:32.298Z,5.70
2023-08-28T23:16:59.235Z,5.05
2023-08-28T23:19:26.203Z,5.00
2023-08-28T23:21:53.085Z,5.05
2023-08-28T23:24:19.992Z,5.22
2023-08-28T23:26:46.859Z,5.38
2023-08-28T23:29:15.448Z,5.60
2023-08-28T23:31:42.429Z,5.40
2023-08-28T23:34:09.263Z,5.90
2023-08-28T23:36:36.322Z,5.43
2023-08-28T23:39:08.323Z,5.22
2023-08-28T23:41:35.837Z,5.20
2023-08-28T23:44:02.964Z,5.40
2023-08-28T23:46:29.865Z,4.88
2023-08-28T23:48:56.840Z,5.28
2023-08-28T23:51:23.918Z,5.22
2023-08-28T23:53:50.853Z,4.95
2023-08-28T23:56:17.944Z,5.25
2023-08-28T23:58:44.790Z,4.63
